Time,TemperatureF,DewpointF,PressureIn,WindDirection,WindDirectionDegrees,WindSpeedMPH,WindSpeedGustMPH,Humidity,HourlyPrecipIn,Conditions,Clouds,dailyrainin,SoftwareType,DateUTC
2013-07-17 00:01:00,69.0,25.0,30.04,SSE,163,6.0,13.0,19,0.00,,,0.00,,2013-07-17 07:01:00,
2013-07-17 00:11:00,69.0,25.0,30.04,SSE,163,6.0,13.0,19,0.00,,,0.00,,2013-07-17 07:11:00,
2013-07-17 00:32:00,69.0,25.0,30.04,South,169,5.0,13.0,19,0.00,,,0.00,,2013-07-17 07:32:00,
2013-07-17 00:42:00,68.0,29.0,30.04,SW,229,4.0,12.0,23,0.00,,,0.00,,2013-07-17 07:42:00,
2013-07-17 00:52:00,68.0,23.0,30.04,SSW,199,5.0,10.0,18,0.00,,,0.00,,2013-07-17 07:52:00,
2013-07-17 01:01:00,69.0,21.0,30.04,South,190,6.0,15.0,16,0.00,,,0.00,,2013-07-17 08:01:00,
2013-07-17 01:11:00,69.0,21.0,30.04,South,190,6.0,15.0,16,0.00,,,0.00,,2013-07-17 08:11:00,
2013-07-17 01:21:00,69.0,25.0,30.03,SSW,199,4.0,10.0,19,0.00,,,0.00,,2013-07-17 08:21:00,
2013-07-17 01:42:00,68.0,25.0,30.03,SW,216,3.0,10.0,20,0.00,,,0.00,,2013-07-17 08:42:00,
2013-07-17 01:53:00,67.0,33.0,30.03,SE,134,3.0,10.0,28,0.00,,,0.00,,2013-07-17 08:53:00,
2013-07-17 02:01:00,66.0,32.0,30.04,ESE,123,5.0,12.0,28,0.00,,,0.00,,2013-07-17 09:01:00,
2013-07-17 02:11:00,66.0,32.0,30.04,ESE,123,5.0,12.0,28,0.00,,,0.00,,2013-07-17 09:11:00,
2013-07-17 02:22:00,66.0,29.0,30.04,South,169,2.0,12.0,25,0.00,,,0.00,,2013-07-17 09:22:00,
2013-07-17 02:32:00,66.0,26.0,30.03,SSE,148,6.0,11.0,22,0.00,,,0.00,,2013-07-17 09:32:00,
2013-07-17 02:43:00,66.0,26.0,30.03,SSE,148,6.0,11.0,22,0.00,,,0.00,,2013-07-17 09:43:00,
2013-07-17 02:52:00,66.0,28.0,30.03,SSE,160,7.0,13.0,24,0.00,,,0.00,,2013-07-17 09:52:00,
2013-07-17 03:01:00,66.0,32.0,30.03,West,262,4.0,7.0,28,0.00,,,0.00,,2013-07-17 10:01:00,
2013-07-17 03:11:00,66.0,32.0,30.03,West,262,4.0,7.0,28,0.00,,,0.00,,2013-07-17 10:11:00,
2013-07-17 03:22:00,66.0,33.0,30.03,WSW,254,1.0,10.0,29,0.00,,,0.00,,2013-07-17 10:22:00,
2013-07-17 03:32:00,65.0,34.0,30.03,SE,143,4.0,7.0,31,0.00,,,0.00,,2013-07-17 10:32:00,
2013-07-17 03:43:00,65.0,34.0,30.03,SE,143,4.0,7.0,31,0.00,,,0.00,,2013-07-17 10:43:00,
2013-07-17 03:52:00,65.0,34.0,30.03,South,175,3.0,9.0,32,0.00,,,0.00,,2013-07-17 10:52:00,
2013-07-17 04:01:00,65.0,36.0,30.03,SE,139,4.0,12.0,34,0.00,,,0.00,,2013-07-17 11:01:00,
2013-07-17 04:11:00,65.0,36.0,30.03,SE,139,4.0,12.0,34,0.00,,,0.00,,2013-07-17 11:11:00,
2013-07-17 04:22:00,65.0,36.0,30.03,SE,130,3.0,13.0,34,0.00,,,0.00,,2013-07-17 11:22:00,
2013-07-17 04:32:00,65.0,36.0,30.03,SE,130,3.0,13.0,34,0.00,,,0.00,,2013-07-17 11:32:00,
2013-07-17 04:42:00,64.0,37.0,30.02,SE,128,2.0,5.0,36,0.00,,,0.00,,2013-07-17 11:42:00,
2013-07-17 04:52:00,62.0,37.0,30.04,SE,128,1.0,2.0,39,0.00,,,0.00,,2013-07-17 11:52:00,
2013-07-17 05:01:00,62.0,37.0,30.02,SE,127,1.0,4.0,39,0.00,,,0.00,,2013-07-17 12:01:00,
2013-07-17 05:11:00,62.0,37.0,30.02,SE,127,1.0,4.0,39,0.00,,,0.00,,2013-07-17 12:11:00,
2013-07-17 05:22:00,63.0,36.0,30.02,ENE,78,2.0,5.0,36,0.00,,,0.00,,2013-07-17 12:22:00,
2013-07-17 05:32:00,64.0,34.0,30.04,SSW,193,1.0,3.0,33,0.00,,,0.00,,2013-07-17 12:32:00,
2013-07-17 05:42:00,64.0,34.0,30.04,SSW,193,1.0,3.0,33,0.00,,,0.00,,2013-07-17 12:42:00,
2013-07-17 05:53:00,63.0,33.0,30.02,SSW,194,0.0,4.0,32,0.00,,,0.00,,2013-07-17 12:53:00,
2013-07-17 06:22:00,63.0,35.0,30.03,ENE,70,3.0,7.0,35,0.00,,,0.00,,2013-07-17 13:22:00,
2013-07-17 06:32:00,63.0,35.0,30.03,ENE,70,3.0,7.0,35,0.00,,,0.00,,2013-07-17 13:32:00,
2013-07-17 06:43:00,63.0,35.0,30.04,ENE,63,1.0,7.0,35,0.00,,,0.00,,2013-07-17 13:43:00,
2013-07-17 06:52:00,65.0,37.0,30.06,East,84,0.0,3.0,35,0.00,,,0.00,,2013-07-17 13:52:00,
2013-07-17 07:02:00,65.0,37.0,30.06,East,84,0.0,3.0,35,0.00,,,0.00,,2013-07-17 14:02:00,
2013-07-17 07:11:00,66.0,36.0,30.06,NW,309,3.0,6.0,33,0.00,,,0.00,,2013-07-17 14:11:00,
2013-07-17 07:32:00,66.0,37.0,30.05,NW,304,2.0,6.0,34,0.00,,,0.00,,2013-07-17 14:32:00,
2013-07-17 07:43:00,69.0,36.0,30.06,NW,304,0.0,2.0,30,0.00,,,0.00,,2013-07-17 14:43:00,
2013-07-17 07:52:00,72.0,36.0,30.07,NNW,344,2.0,4.0,27,0.00,,,0.00,,2013-07-17 14:52:00,
2013-07-17 08:01:00,74.0,37.0,30.07,NNE,31,0.0,5.0,26,0.00,,,0.00,,2013-07-17 15:01:00,
2013-07-17 08:12:00,74.0,37.0,30.07,NNE,31,0.0,5.0,26,0.00,,,0.00,,2013-07-17 15:12:00,
2013-07-17 08:21:00,75.0,36.0,30.09,East,91,2.0,6.0,24,0.00,,,0.00,,2013-07-17 15:21:00,
2013-07-17 08:32:00,77.0,33.0,30.09,NE,42,3.0,6.0,20,0.00,,,0.00,,2013-07-17 15:32:00,
2013-07-17 08:42:00,77.0,33.0,30.09,NE,42,3.0,6.0,20,0.00,,,0.00,,2013-07-17 15:42:00,
2013-07-17 08:52:00,78.0,34.0,30.08,NNE,19,1.0,5.0,20,0.00,,,0.00,,2013-07-17 15:52:00,
2013-07-17 09:01:00,78.0,31.0,30.09,WNW,293,4.0,6.0,18,0.00,,,0.00,,2013-07-17 16:01:00,
2013-07-17 09:11:00,78.0,31.0,30.09,WNW,293,4.0,6.0,18,0.00,,,0.00,,2013-07-17 16:11:00,
2013-07-17 09:21:00,78.0,30.0,30.09,SE,130,2.0,6.0,17,0.00,,,0.00,,2013-07-17 16:21:00,
2013-07-17 09:32:00,80.0,31.0,30.09,SW,217,3.0,13.0,17,0.00,,,0.00,,2013-07-17 16:32:00,
2013-07-17 09:42:00,80.0,31.0,30.09,SW,217,3.0,13.0,17,0.00,,,0.00,,2013-07-17 16:42:00,
2013-07-17 09:52:00,81.0,32.0,30.08,SE,140,7.0,13.0,17,0.00,,,0.00,,2013-07-17 16:52:00,
2013-07-17 10:01:00,81.0,32.0,30.08,SE,141,4.0,9.0,17,0.00,,,0.00,,2013-07-17 17:01:00,
2013-07-17 10:11:00,81.0,32.0,30.08,SE,141,4.0,9.0,17,0.00,,,0.00,,2013-07-17 17:11:00,
2013-07-17 10:21:00,82.0,31.0,30.08,WNW,292,5.0,11.0,16,0.00,,,0.00,,2013-07-17 17:21:00,
2013-07-17 10:43:00,84.0,31.0,30.07,SW,225,3.0,6.0,15,0.00,,,0.00,,2013-07-17 17:43:00,
2013-07-17 10:52:00,84.0,30.0,30.07,SW,229,5.0,11.0,14,0.00,,,0.00,,2013-07-17 17:52:00,
2013-07-17 11:01:00,85.0,29.0,30.07,SE,142,7.0,11.0,13,0.00,,,0.00,,2013-07-17 18:01:00,
2013-07-17 11:11:00,85.0,29.0,30.07,SE,142,7.0,11.0,13,0.00,,,0.00,,2013-07-17 18:11:00,
2013-07-17 11:22:00,86.0,29.0,30.07,SSE,167,6.0,14.0,13,0.00,,,0.00,,2013-07-17 18:22:00,
2013-07-17 11:43:00,87.0,28.0,30.07,SE,128,4.0,10.0,12,0.00,,,0.00,,2013-07-17 18:43:00,
2013-07-17 11:52:00,87.0,28.0,30.09,South,187,3.0,13.0,12,0.00,,,0.00,,2013-07-17 18:52:00,
2013-07-17 12:01:00,87.0,28.0,30.09,South,187,3.0,13.0,12,0.00,,,0.00,,2013-07-17 19:01:00,
2013-07-17 12:11:00,88.0,29.0,30.09,SSE,149,9.0,13.0,12,0.00,,,0.00,,2013-07-17 19:11:00,
2013-07-17 12:22:00,88.0,27.0,30.09,SE,134,8.0,14.0,11,0.00,,,0.00,,2013-07-17 19:22:00,
2013-07-17 12:43:00,89.0,28.0,30.09,SSE,156,7.0,13.0,11,0.00,,,0.00,,2013-07-17 19:43:00,
2013-07-17 12:53:00,89.0,28.0,30.08,SSE,150,6.0,13.0,11,0.00,,,0.00,,2013-07-17 19:53:00,
2013-07-17 13:01:00,89.0,28.0,30.09,WSW,238,10.0,15.0,11,0.00,,,0.00,,2013-07-17 20:01:00,
2013-07-17 13:11:00,89.0,28.0,30.09,WSW,238,10.0,15.0,11,0.00,,,0.00,,2013-07-17 20:11:00,
2013-07-17 13:22:00,89.0,28.0,30.08,SSE,165,6.0,14.0,11,0.00,,,0.00,,2013-07-17 20:22:00,
2013-07-17 13:33:00,90.0,28.0,30.08,SSE,159,7.0,16.0,11,0.00,,,0.00,,2013-07-17 20:33:00,
2013-07-17 13:43:00,90.0,28.0,30.08,SSE,159,7.0,16.0,11,0.00,,,0.00,,2013-07-17 20:43:00,
2013-07-17 13:52:00,90.0,28.0,30.09,SE,142,7.0,17.0,11,0.00,,,0.00,,2013-07-17 20:52:00,
2013-07-17 14:01:00,89.0,30.0,30.09,SSW,194,9.0,18.0,12,0.00,,,0.00,,2013-07-17 21:01:00,
2013-07-17 14:11:00,89.0,30.0,30.09,SSW,194,9.0,18.0,12,0.00,,,0.00,,2013-07-17 21:11:00,
2013-07-17 14:22:00,91.0,29.0,30.09,SSW,210,7.0,16.0,11,0.00,,,0.00,,2013-07-17 21:22:00,
2013-07-17 14:31:00,91.0,31.0,30.09,SSW,192,9.0,17.0,12,0.00,,,0.00,,2013-07-17 21:31:00,
2013-07-17 14:42:00,91.0,31.0,30.09,SSW,192,9.0,17.0,12,0.00,,,0.00,,2013-07-17 21:42:00,
2013-07-17 14:52:00,90.0,31.0,30.06,South,172,9.0,16.0,12,0.00,,,0.00,,2013-07-17 21:52:00,
2013-07-17 15:01:00,90.0,31.0,30.06,South,182,11.0,19.0,12,0.00,,,0.00,,2013-07-17 22:01:00,
2013-07-17 15:11:00,90.0,31.0,30.06,South,182,11.0,19.0,12,0.00,,,0.00,,2013-07-17 22:11:00,
2013-07-17 15:32:00,89.0,30.0,30.06,SSW,211,11.0,20.0,12,0.00,,,0.00,,2013-07-17 22:32:00,
2013-07-17 15:43:00,89.0,30.0,30.06,South,175,11.0,21.0,12,0.00,,,0.00,,2013-07-17 22:43:00,
2013-07-17 15:53:00,90.0,28.0,30.05,SSE,151,10.0,21.0,11,0.00,,,0.00,,2013-07-17 22:53:00,
2013-07-17 16:01:00,89.0,28.0,30.05,South,187,10.0,20.0,11,0.00,,,0.00,,2013-07-17 23:01:00,
2013-07-17 16:11:00,89.0,28.0,30.05,South,187,10.0,20.0,11,0.00,,,0.00,,2013-07-17 23:11:00,
2013-07-17 16:32:00,89.0,28.0,30.05,SSW,192,7.0,19.0,11,0.00,,,0.00,,2013-07-17 23:32:00,
2013-07-17 16:42:00,89.0,28.0,30.05,SSE,161,10.0,17.0,11,0.00,,,0.00,,2013-07-17 23:42:00,
2013-07-17 16:52:00,88.0,27.0,30.05,SE,128,12.0,19.0,11,0.00,,,0.00,,2013-07-17 23:52:00,
2013-07-17 17:01:00,88.0,27.0,30.05,SE,128,12.0,19.0,11,0.00,,,0.00,,2013-07-18 00:01:00,
2013-07-17 17:11:00,88.0,27.0,30.05,South,173,11.0,21.0,11,0.00,,,0.00,,2013-07-18 00:11:00,
2013-07-17 17:42:00,88.0,25.0,30.05,SE,130,9.0,18.0,10,0.00,,,0.00,,2013-07-18 00:42:00,
2013-07-17 17:52:00,87.0,24.0,30.05,SSE,155,8.0,17.0,10,0.00,,,0.00,,2013-07-18 00:52:00,
2013-07-17 18:01:00,86.0,25.0,30.05,South,178,10.0,19.0,11,0.00,,,0.00,,2013-07-18 01:01:00,
2013-07-17 18:11:00,86.0,25.0,30.05,South,178,10.0,19.0,11,0.00,,,0.00,,2013-07-18 01:11:00,
2013-07-17 18:22:00,85.0,25.0,30.05,South,180,10.0,19.0,11,0.00,,,0.00,,2013-07-18 01:22:00,
2013-07-17 18:32:00,84.0,22.0,30.05,South,186,12.0,21.0,10,0.00,,,0.00,,2013-07-18 01:32:00,
2013-07-17 18:42:00,84.0,22.0,30.05,South,186,12.0,21.0,10,0.00,,,0.00,,2013-07-18 01:42:00,
2013-07-17 18:53:00,83.0,23.0,30.05,SSW,192,15.0,20.0,11,0.00,,,0.00,,2013-07-18 01:53:00,
2013-07-17 19:01:00,82.0,18.0,30.05,South,181,10.0,21.0,9,0.00,,,0.00,,2013-07-18 02:01:00,
2013-07-17 19:21:00,82.0,18.0,30.06,South,175,10.0,19.0,9,0.00,,,0.00,,2013-07-18 02:21:00,
2013-07-17 19:32:00,82.0,18.0,30.06,South,175,10.0,19.0,9,0.00,,,0.00,,2013-07-18 02:32:00,
2013-07-17 19:42:00,81.0,17.0,30.06,SSW,198,12.0,19.0,9,0.00,,,0.00,,2013-07-18 02:42:00,
2013-07-17 19:52:00,80.0,16.0,30.03,SSW,198,6.0,16.0,9,0.00,,,0.00,,2013-07-18 02:52:00,
2013-07-17 20:01:00,79.0,15.0,30.04,SSW,207,5.0,16.0,9,0.00,,,0.00,,2013-07-18 03:01:00,
2013-07-17 20:11:00,79.0,15.0,30.04,SSW,207,5.0,16.0,9,0.00,,,0.00,,2013-07-18 03:11:00,
2013-07-17 20:22:00,78.0,15.0,30.04,SSW,206,7.0,14.0,9,0.00,,,0.00,,2013-07-18 03:22:00,
2013-07-17 20:32:00,77.0,18.0,30.05,SSE,159,5.0,12.0,11,0.00,,,0.00,,2013-07-18 03:32:00,
2013-07-17 20:43:00,77.0,18.0,30.05,SSE,159,5.0,12.0,11,0.00,,,0.00,,2013-07-18 03:43:00,
2013-07-17 20:52:00,76.0,16.0,30.05,SE,130,6.0,13.0,10,0.00,,,0.00,,2013-07-18 03:52:00,
2013-07-17 21:01:00,75.0,19.0,30.05,South,169,2.0,9.0,12,0.00,,,0.00,,2013-07-18 04:01:00,
2013-07-17 21:12:00,75.0,19.0,30.05,South,169,2.0,9.0,12,0.00,,,0.00,,2013-07-18 04:12:00,
2013-07-17 21:22:00,75.0,17.0,30.06,South,178,6.0,13.0,11,0.00,,,0.00,,2013-07-18 04:22:00,
2013-07-17 21:32:00,75.0,17.0,30.06,South,178,6.0,13.0,11,0.00,,,0.00,,2013-07-18 04:32:00,
2013-07-17 21:43:00,75.0,17.0,30.06,SSW,192,3.0,14.0,11,0.00,,,0.00,,2013-07-18 04:43:00,
2013-07-17 21:52:00,75.0,21.0,30.08,SSE,157,1.0,11.0,13,0.00,,,0.00,,2013-07-18 04:52:00,
2013-07-17 22:01:00,73.0,23.0,30.09,SSW,199,1.0,5.0,15,0.00,,,0.00,,2013-07-18 05:01:00,
2013-07-17 22:11:00,73.0,23.0,30.09,SSW,199,1.0,5.0,15,0.00,,,0.00,,2013-07-18 05:11:00,
2013-07-17 22:21:00,73.0,23.0,30.07,South,189,3.0,9.0,15,0.00,,,0.00,,2013-07-18 05:21:00,
2013-07-17 22:32:00,73.0,23.0,30.07,South,189,3.0,9.0,15,0.00,,,0.00,,2013-07-18 05:32:00,
2013-07-17 22:42:00,72.0,26.0,30.06,NW,325,1.0,6.0,18,0.00,,,0.00,,2013-07-18 05:42:00,
2013-07-17 22:52:00,72.0,27.0,30.07,South,173,2.0,5.0,19,0.00,,,0.00,,2013-07-18 05:52:00,
2013-07-17 23:01:00,72.0,27.0,30.08,WSW,248,3.0,7.0,19,0.00,,,0.00,,2013-07-18 06:01:00,
2013-07-17 23:11:00,72.0,27.0,30.08,WSW,248,3.0,7.0,19,0.00,,,0.00,,2013-07-18 06:11:00,
2013-07-17 23:31:00,72.0,26.0,30.08,WSW,245,5.0,7.0,18,0.00,,,0.00,,2013-07-18 06:31:00,
2013-07-17 23:43:00,72.0,25.0,30.08,South,171,5.0,9.0,17,0.00,,,0.00,,2013-07-18 06:43:00,
2013-07-17 23:52:00,72.0,26.0,30.07,SW,217,0.0,4.0,18,0.00,,,0.00,,2013-07-18 06:52:00,